Time;durP1;ratioP1;P1;durP2;ratioP2;P2;SDS_P1;SDS_P2;PMS_P1;PMS_P2;Temp;Humidity;BMP_temperature;BMP_pressure;BME280_temperature;BME280_humidity;BME280_pressure;Samples;Min_cycle;Max_cycle;Signal;HPM_P1;HPM_P2
2023/11/23 00:00:52;;;;;;;3.25;2.40;;;;;;;9.38;70.09;95295.47;4846910;29;20025;-76
2023/11/23 00:03:17;;;;;;;3.78;2.65;;;;;;;9.38;70.19;95287.22;4858930;29;20520;-76
2023/11/23 00:05:43;;;;;;;3.97;2.83;;;;;;;9.41;70.08;95289.16;4873177;29;20420;-76
2023/11/23 00:08:08;;;;;;;5.38;2.80;;;;;;;9.37;70.10;95288.44;4857672;29;20379;-78
2023/11/23 00:10:33;;;;;;;4.63;2.83;;;;;;;9.39;70.18;95292.28;4839497;29;20070;-77
2023/11/23 00:12:59;;;;;;;3.42;2.40;;;;;;;9.38;70.19;95295.47;4840557;29;20034;-76
2023/11/23 00:15:24;;;;;;;3.58;2.70;;;;;;;9.37;70.09;95297.44;4855077;29;20040;-77
2023/11/23 00:17:50;;;;;;;3.38;2.28;;;;;;;9.38;70.07;95296.22;4841151;29;20105;-77
2023/11/23 00:20:15;;;;;;;5.05;2.42;;;;;;;9.41;69.88;95305.63;4858334;29;20021;-77
2023/11/23 00:22:41;;;;;;;3.33;2.45;;;;;;;9.32;69.88;95304.19;4858066;29;20480;-75
2023/11/23 00:25:11;;;;;;;3.95;2.38;;;;;;;9.29;70.09;95298.78;4862225;29;20037;-76
2023/11/23 00:27:37;;;;;;;3.38;2.72;;;;;;;9.31;70.16;95310.88;4839757;29;20057;-75
2023/11/23 00:30:03;;;;;;;3.90;2.70;;;;;;;9.35;70.15;95310.81;4840506;29;20128;-77
2023/11/23 00:32:28;;;;;;;5.00;2.80;;;;;;;9.31;70.31;95315.56;4851290;29;20022;-77
2023/11/23 00:34:54;;;;;;;4.78;3.17;;;;;;;9.31;70.53;95324.59;4870691;29;20029;-75
2023/11/23 00:37:21;;;;;;;4.35;2.58;;;;;;;9.25;70.68;95329.00;4854694;29;20510;-77
2023/11/23 00:39:47;;;;;;;4.65;2.78;;;;;;;9.24;70.78;95324.72;4871499;29;20043;-76
2023/11/23 00:42:12;;;;;;;3.75;2.80;;;;;;;9.27;70.74;95334.84;4841482;29;20021;-76
2023/11/23 00:44:37;;;;;;;3.30;2.40;;;;;;;9.27;70.59;95334.84;4839978;29;20030;-76
2023/11/23 00:47:03;;;;;;;4.13;2.60;;;;;;;9.29;70.82;95337.19;4871495;29;20033;-76
2023/11/23 00:49:28;;;;;;;6.45;3.60;;;;;;;9.34;70.82;95336.66;4853790;29;20155;-76
2023/11/23 00:51:54;;;;;;;6.72;3.30;;;;;;;9.30;70.98;95330.50;4874460;29;20629;-75
2023/11/23 00:54:20;;;;;;;4.07;2.67;;;;;;;9.26;71.16;95327.03;4857135;29;20037;-76
2023/11/23 00:56:46;;;;;;;6.18;2.75;;;;;;;9.23;71.21;95328.66;4855694;29;20418;-76
2023/11/23 00:59:11;;;;;;;3.33;2.45;;;;;;;9.20;71.45;95337.72;4841235;29;20041;-76
2023/11/23 01:01:37;;;;;;;4.55;3.00;;;;;;;9.17;71.60;95335.78;4869922;29;20073;-76
2023/11/23 01:04:02;;;;;;;3.92;2.40;;;;;;;9.19;71.60;95344.41;4864241;29;20507;-76
2023/11/23 01:06:28;;;;;;;3.03;2.30;;;;;;;9.17;71.73;95333.03;4872868;29;20032;-78
2023/11/23 01:08:53;;;;;;;3.83;2.88;;;;;;;9.17;71.87;95341.28;4871846;29;20496;-76
2023/11/23 01:11:18;;;;;;;3.38;2.50;;;;;;;9.19;71.70;95343.63;4838707;29;20022;-77
2023/11/23 01:13:44;;;;;;;3.50;2.50;;;;;;;9.24;71.60;95340.41;4839197;29;20089;-77
2023/11/23 01:16:09;;;;;;;3.13;2.28;;;;;;;9.15;72.00;95338.19;4855286;29;20124;-77
2023/11/23 01:18:35;;;;;;;5.68;2.55;;;;;;;9.13;72.18;95337.84;4839330;29;20026;-77
2023/11/23 01:21:00;;;;;;;3.97;2.40;;;;;;;9.11;72.20;95348.44;4841013;29;22282;-76
2023/11/23 01:23:25;;;;;;;3.70;2.63;;;;;;;9.11;72.39;95337.47;4873796;29;20040;-76
2023/11/23 01:25:52;;;;;;;5.50;2.72;;;;;;;9.12;72.32;95344.53;4857650;29;20132;-76
2023/11/23 01:28:18;;;;;;;4.47;2.63;;;;;;;9.11;72.47;95342.94;4856605;29;20040;-76
2023/11/23 01:30:44;;;;;;;4.07;2.80;;;;;;;9.11;72.46;95345.69;4857554;29;20059;-77
2023/11/23 01:33:10;;;;;;;3.55;2.25;;;;;;;9.05;72.59;95344.63;4873391;29;20041;-76
2023/11/23 01:35:36;;;;;;;4.40;2.88;;;;;;;9.12;72.33;95350.00;4874120;29;20033;-76
2023/11/23 01:38:01;;;;;;;5.22;2.90;;;;;;;9.12;71.95;95350.00;4873558;29;20104;-76
2023/11/23 01:40:26;;;;;;;3.97;2.70;;;;;;;9.09;72.11;95353.56;4873750;29;20568;-75
2023/11/23 01:42:52;;;;;;;4.18;2.53;;;;;;;9.08;72.25;95357.50;4874007;29;20069;-76
2023/11/23 01:45:17;;;;;;;4.00;2.40;;;;;;;9.07;72.30;95345.00;4873442;29;20680;-77
2023/11/23 01:47:44;;;;;;;3.42;2.70;;;;;;;9.08;72.33;95349.28;4857553;29;20517;-77
2023/11/23 01:50:10;;;;;;;4.30;2.50;;;;;;;9.06;72.26;95351.69;4873033;29;20108;-78
2023/11/23 01:52:36;;;;;;;3.20;2.33;;;;;;;9.03;72.40;95349.75;4857226;29;20123;-76
2023/11/23 01:55:03;;;;;;;4.03;2.80;;;;;;;9.06;72.54;95362.66;4856246;29;20515;-76
2023/11/23 01:57:38;;;;;;;6.22;2.78;;;;;;;9.05;72.46;95355.59;4871470;29;20128;-76
2023/11/23 02:00:04;;;;;;;3.85;2.63;;;;;;;9.06;72.52;95362.66;4838493;29;20040;-78
2023/11/23 02:02:29;;;;;;;6.85;2.88;;;;;;;9.03;72.59;95366.19;4837806;29;20409;-76
2023/11/23 02:04:58;;;;;;;4.03;2.75;;;;;;;9.04;72.38;95360.28;4838817;29;20497;-76
2023/11/23 02:07:23;;;;;;;4.00;2.50;;;;;;;9.02;72.06;95359.16;4837724;29;20580;-76
2023/11/23 02:09:48;;;;;;;3.65;2.17;;;;;;;9.05;71.98;95366.56;4844145;29;20124;-76
2023/11/23 02:12:15;;;;;;;3.28;2.42;;;;;;;9.00;72.06;95359.59;4851711;29;20037;-76
2023/11/23 02:14:41;;;;;;;4.57;2.88;;;;;;;9.03;72.00;95361.50;4879912;29;20219;-77
2023/11/23 02:17:16;;;;;;;3.40;2.40;;;;;;;9.05;71.75;95369.28;4873211;29;20032;-77
2023/11/23 02:19:46;;;;;;;4.10;2.78;;;;;;;9.05;71.92;95364.59;4837830;29;20034;-77
2023/11/23 02:22:12;;;;;;;5.15;2.70;;;;;;;9.05;71.76;95367.31;4838208;29;20052;-76
2023/11/23 02:24:38;;;;;;;3.72;2.47;;;;;;;9.07;71.68;95361.44;4821902;29;20038;-76
2023/11/23 02:27:04;;;;;;;3.85;2.35;;;;;;;9.08;71.75;95362.22;4837916;29;20052;-76
2023/11/23 02:29:29;;;;;;;3.67;2.38;;;;;;;9.05;71.79;95370.06;4854158;29;20030;-76
2023/11/23 02:31:54;;;;;;;3.88;2.33;;;;;;;9.03;71.97;95360.72;4873415;29;20116;-75
2023/11/23 02:34:20;;;;;;;3.92;2.20;;;;;;;9.01;72.21;95365.84;4855831;29;20104;-75
2023/11/23 02:36:46;;;;;;;3.35;2.70;;;;;;;8.98;72.22;95361.97;4871394;29;20025;-76
2023/11/23 02:39:11;;;;;;;3.95;2.40;;;;;;;8.99;72.18;95369.00;4872910;29;20191;-76
2023/11/23 02:41:37;;;;;;;4.30;2.88;;;;;;;9.01;72.21;95363.13;4872333;29;20029;-75
2023/11/23 02:44:02;;;;;;;2.50;2.10;;;;;;;9.01;72.11;95363.13;4873346;29;20037;-77
2023/11/23 02:46:27;;;;;;;5.05;2.85;;;;;;;8.99;72.04;95369.00;4872036;29;20033;-77
2023/11/23 02:48:53;;;;;;;4.75;2.50;;;;;;;9.00;72.13;95375.25;4873011;29;20084;-76
2023/11/23 02:51:19;;;;;;;3.47;2.83;;;;;;;8.99;72.42;95382.69;4855100;29;20373;-76
2023/11/23 02:53:47;;;;;;;4.25;2.95;;;;;;;8.99;72.29;95382.69;4872684;29;20032;-76
2023/11/23 02:56:13;;;;;;;4.38;3.10;;;;;;;8.96;72.59;95388.25;4855888;29;20049;-76
2023/11/23 02:58:39;;;;;;;3.40;2.95;;;;;;;8.92;72.65;95380.06;4872162;29;20057;-76
2023/11/23 03:01:05;;;;;;;5.10;3.08;;;;;;;8.94;72.43;95404.34;4873051;29;20109;-77
2023/11/23 03:03:30;;;;;;;3.72;2.83;;;;;;;8.91;72.66;95403.22;4839544;29;20245;-76
2023/11/23 03:05:59;;;;;;;4.57;3.00;;;;;;;8.91;72.60;95405.19;4856220;29;20029;-77
2023/11/23 03:08:24;;;;;;;3.70;2.55;;;;;;;8.93;72.64;95405.53;4837123;29;20056;-77
2023/11/23 03:10:49;;;;;;;4.45;2.83;;;;;;;8.94;72.82;95405.09;4854138;29;20104;-76
2023/11/23 03:13:18;;;;;;;5.10;3.55;;;;;;;8.94;72.88;95415.31;4841645;29;20039;-77
2023/11/23 03:15:44;;;;;;;3.83;2.72;;;;;;;8.94;73.08;95416.06;4866054;29;20053;-76
2023/11/23 03:18:09;;;;;;;5.57;3.17;;;;;;;8.93;73.16;95413.75;4871155;29;20564;-77
2023/11/23 03:20:34;;;;;;;4.38;2.83;;;;;;;8.97;73.05;95417.22;4839983;29;20033;-77
2023/11/23 03:23:00;;;;;;;4.40;2.60;;;;;;;8.94;73.01;95412.56;4852831;29;20116;-76
2023/11/23 03:25:25;;;;;;;6.07;2.65;;;;;;;8.94;72.76;95409.81;4870037;29;20029;-77
2023/11/23 03:27:50;;;;;;;4.22;2.75;;;;;;;8.93;72.76;95408.28;4855280;29;20615;-78
2023/11/23 03:30:16;;;;;;;3.67;2.38;;;;;;;8.95;72.81;95420.41;4871020;29;20029;-77
2023/11/23 03:32:42;;;;;;;3.83;2.67;;;;;;;8.96;72.61;95415.69;4872341;29;20457;-77
2023/11/23 03:35:07;;;;;;;4.60;2.90;;;;;;;8.94;72.81;95421.56;4872204;29;20525;-77
2023/11/23 03:37:33;;;;;;;4.30;2.72;;;;;;;8.94;73.09;95421.56;4863320;29;20124;-77
2023/11/23 03:39:58;;;;;;;4.57;2.70;;;;;;;8.93;73.17;95420.00;4854141;29;20038;-76
2023/11/23 03:42:23;;;;;;;4.97;2.67;;;;;;;8.90;73.19;95420.09;4852549;29;20044;-77
2023/11/23 03:44:49;;;;;;;4.53;2.67;;;;;;;8.92;73.28;95421.22;4837322;29;20170;-76
2023/11/23 03:47:14;;;;;;;4.05;2.90;;;;;;;8.91;73.15;95422.41;4836363;29;20032;-76
2023/11/23 03:49:40;;;;;;;6.05;3.13;;;;;;;8.94;73.25;95429.00;4852003;29;20037;-77
2023/11/23 03:52:05;;;;;;;3.85;3.03;;;;;;;8.92;72.89;95434.91;4836384;29;20790;-76
2023/11/23 03:54:30;;;;;;;5.35;3.63;;;;;;;8.93;72.92;95435.69;4836572;29;20036;-77
2023/11/23 03:56:57;;;;;;;4.65;3.50;;;;;;;8.87;73.09;95421.66;4836933;29;20049;-77
2023/11/23 03:59:23;;;;;;;4.85;4.03;;;;;;;8.88;73.19;95414.22;4835851;29;20084;-76
2023/11/23 04:01:48;;;;;;;5.43;3.97;;;;;;;8.87;73.19;95416.19;4822233;29;20669;-77
2023/11/23 04:04:14;;;;;;;5.22;3.75;;;;;;;8.88;73.33;95422.44;4836044;29;20341;-77
2023/11/23 04:06:40;;;;;;;6.18;3.95;;;;;;;8.86;73.39;95435.81;4836549;29;20032;-77
2023/11/23 04:09:06;;;;;;;5.97;4.05;;;;;;;8.86;73.33;95435.81;4836374;29;20033;-76
2023/11/23 04:11:31;;;;;;;5.65;3.50;;;;;;;8.87;73.23;95446.34;4836499;29;20033;-77
2023/11/23 04:13:57;;;;;;;8.32;4.55;;;;;;;8.87;73.28;95446.34;4860277;29;20691;-76
2023/11/23 04:16:22;;;;;;;7.38;4.32;;;;;;;8.86;73.34;95449.50;4854722;29;20116;-77
2023/11/23 04:18:48;;;;;;;5.05;3.72;;;;;;;8.86;73.50;95441.28;4855110;29;20057;-76
2023/11/23 04:21:15;;;;;;;9.55;6.00;;;;;;;8.85;73.59;95447.97;4842189;29;20116;-76
2023/11/23 04:23:41;;;;;;;10.68;7.82;;;;;;;8.84;73.73;95449.16;4854385;29;20484;-76
2023/11/23 04:26:06;;;;;;;11.00;8.98;;;;;;;8.84;73.50;95440.94;4846180;29;20116;-78
2023/11/23 04:28:34;;;;;;;8.23;6.20;;;;;;;8.82;73.76;95452.28;4866774;29;20505;-76
2023/11/23 04:30:59;;;;;;;9.23;6.90;;;;;;;8.67;73.62;95420.78;4868793;29;20082;-76
2023/11/23 04:33:25;;;;;;;8.77;6.70;;;;;;;8.80;73.64;95438.22;4871741;29;20017;-76
2023/11/23 04:35:50;;;;;;;8.25;6.70;;;;;;;8.83;73.44;95439.34;4855146;29;20029;-77
2023/11/23 04:38:15;;;;;;;7.57;5.47;;;;;;;8.82;73.31;95446.03;4871203;29;20485;-78
2023/11/23 04:40:41;;;;;;;7.78;4.95;;;;;;;8.80;73.42;95448.41;4855479;29;20040;-77
2023/11/23 04:43:06;;;;;;;6.28;4.32;;;;;;;8.78;73.44;95444.13;4872190;29;20121;-76
2023/11/23 04:45:32;;;;;;;6.40;4.35;;;;;;;8.78;73.46;95457.06;4839981;29;20030;-77
2023/11/23 04:47:57;;;;;;;4.88;3.90;;;;;;;8.77;73.50;95459.03;4855942;29;20116;-78
2023/11/23 04:50:22;;;;;;;6.60;4.13;;;;;;;8.78;73.53;95455.09;4856051;29;20170;-75
2023/11/23 04:52:48;;;;;;;6.90;4.00;;;;;;;8.70;73.60;95450.88;4839016;29;20025;-76
2023/11/23 04:55:13;;;;;;;5.45;4.03;;;;;;;8.75;73.77;95452.38;4839103;29;20025;-77
2023/11/23 04:57:39;;;;;;;5.80;4.05;;;;;;;8.74;73.90;95451.63;4839531;29;20029;-75
2023/11/23 05:00:05;;;;;;;5.93;3.92;;;;;;;8.71;74.04;95451.66;4855424;29;20074;-77
2023/11/23 05:02:31;;;;;;;6.65;3.90;;;;;;;8.70;73.93;95459.09;4839919;29;20034;-77
2023/11/23 05:04:57;;;;;;;4.93;3.63;;;;;;;8.72;73.90;95450.50;4838472;29;20038;-77
2023/11/23 05:07:24;;;;;;;6.10;3.60;;;;;;;8.71;73.86;95454.41;4839671;29;20520;-75
2023/11/23 05:09:49;;;;;;;6.80;4.05;;;;;;;8.69;73.88;95459.53;4855411;29;20118;-77
2023/11/23 05:12:15;;;;;;;5.35;4.07;;;;;;;8.70;74.08;95466.56;4839052;29;20126;-76
2023/11/23 05:14:40;;;;;;;6.05;4.20;;;;;;;8.69;74.05;95460.28;4854203;29;20021;-77
2023/11/23 05:17:06;;;;;;;6.63;3.70;;;;;;;8.69;74.35;95473.22;4855711;29;20044;-77
2023/11/23 05:19:31;;;;;;;8.60;5.05;;;;;;;8.73;74.04;95465.75;4840333;29;20086;-77
2023/11/23 05:21:57;;;;;;;7.32;6.07;;;;;;;8.74;74.04;95470.03;4856612;29;20538;-77
2023/11/23 05:24:24;;;;;;;8.55;6.05;;;;;;;8.75;73.93;95471.59;4874753;29;20549;-77
2023/11/23 05:26:49;;;;;;;7.30;5.47;;;;;;;8.70;74.15;95472.81;4851109;29;20034;-79
2023/11/23 05:29:15;;;;;;;9.23;6.18;;;;;;;8.70;74.08;95470.06;4869741;29;20081;-76
2023/11/23 05:31:42;;;;;;;11.27;5.53;;;;;;;8.70;74.14;95475.56;4868999;29;20045;-76
2023/11/23 05:34:08;;;;;;;7.70;5.43;;;;;;;8.69;74.23;95471.25;4872374;29;20032;-76
2023/11/23 05:36:33;;;;;;;9.88;5.82;;;;;;;8.69;74.50;95474.00;4853156;29;20029;-77
2023/11/23 05:38:59;;;;;;;10.95;6.15;;;;;;;8.63;74.39;95472.91;4856486;29;20035;-76
2023/11/23 05:41:24;;;;;;;9.95;6.18;;;;;;;8.70;74.29;95489.25;4850517;29;20139;-77
2023/11/23 05:43:50;;;;;;;8.88;6.32;;;;;;;8.72;74.25;95492.38;4837517;29;20461;-77
2023/11/23 05:46:16;;;;;;;8.98;5.95;;;;;;;8.71;74.37;95479.84;4839056;29;20488;-77
2023/11/23 05:48:41;;;;;;;10.52;6.88;;;;;;;8.70;74.25;95485.75;4853445;29;20033;-76
2023/11/23 05:51:07;;;;;;;6.50;5.03;;;;;;;8.74;74.35;95494.69;4855333;29;20033;-76
2023/11/23 05:53:32;;;;;;;7.45;5.38;;;;;;;8.72;74.25;95497.88;4844454;29;20081;-76
2023/11/23 05:55:58;;;;;;;7.07;5.13;;;;;;;8.72;74.32;95502.56;4873041;29;20494;-76
2023/11/23 05:58:23;;;;;;;9.32;6.25;;;;;;;8.71;74.29;95507.25;4872849;29;20164;-77
2023/11/23 06:00:49;;;;;;;8.88;5.85;;;;;;;8.79;74.25;95513.44;4872607;29;20041;-76
2023/11/23 06:03:14;;;;;;;11.90;6.97;;;;;;;8.76;74.46;95509.53;4872598;29;20036;-76
2023/11/23 06:05:40;;;;;;;12.55;7.35;;;;;;;8.82;74.17;95512.59;4856068;29;20433;-75
2023/11/23 06:08:05;;;;;;;15.02;7.93;;;;;;;8.78;74.40;95518.16;4873329;29;20040;-76
2023/11/23 06:10:33;;;;;;;17.00;8.73;;;;;;;8.77;74.39;95524.81;4873040;29;20112;-75
2023/11/23 06:12:58;;;;;;;13.00;8.75;;;;;;;8.74;74.57;95520.16;4841157;29;20048;-76
2023/11/23 06:15:24;;;;;;;11.93;7.38;;;;;;;8.79;74.52;95510.69;4873497;29;20060;-76
2023/11/23 06:17:49;;;;;;;13.02;8.55;;;;;;;8.90;74.17;95519.56;4872800;29;20081;-76
2023/11/23 06:20:14;;;;;;;9.60;7.18;;;;;;;8.90;74.05;95522.31;4856677;29;20535;-77
2023/11/23 06:22:40;;;;;;;11.38;7.25;;;;;;;8.98;73.77;95531.97;4855681;29;20077;-76
2023/11/23 06:25:05;;;;;;;11.95;8.23;;;;;;;8.94;73.69;95531.25;4872043;29;20036;-76
2023/11/23 06:27:33;;;;;;;12.27;8.30;;;;;;;8.96;73.77;95533.59;4855662;29;20041;-76
2023/11/23 06:29:59;;;;;;;11.23;7.70;;;;;;;8.90;74.17;95530.53;4850496;29;20021;-77
2023/11/23 06:32:24;;;;;;;9.48;7.28;;;;;;;8.87;74.24;95528.59;4837694;29;20045;-77
2023/11/23 06:34:49;;;;;;;12.70;7.53;;;;;;;8.88;74.13;95524.66;4837467;29;20041;-75
2023/11/23 06:37:15;;;;;;;10.55;7.13;;;;;;;8.86;74.19;95518.06;4837918;29;20068;-77
2023/11/23 06:39:41;;;;;;;12.20;7.32;;;;;;;8.81;74.54;95516.53;4853583;29;20025;-77
2023/11/23 06:42:06;;;;;;;11.35;7.10;;;;;;;8.86;74.45;95521.56;4852389;29;20025;-76
2023/11/23 06:44:31;;;;;;;11.20;7.85;;;;;;;8.84;74.56;95526.69;4872319;29;20084;-77
2023/11/23 06:46:57;;;;;;;11.93;7.68;;;;;;;8.88;74.45;95526.63;4864025;29;20036;-77
2023/11/23 06:49:22;;;;;;;12.35;7.32;;;;;;;8.88;74.26;95524.66;4837444;29;20033;-76
2023/11/23 06:51:48;;;;;;;11.60;7.68;;;;;;;8.90;74.40;95518.78;4860701;29;20032;-77
2023/11/23 06:54:13;;;;;;;13.57;8.13;;;;;;;8.90;74.42;95516.03;4843796;29;20416;-76
2023/11/23 06:56:39;;;;;;;11.75;7.32;;;;;;;8.92;74.27;95528.16;4855292;29;20100;-76
2023/11/23 06:59:04;;;;;;;11.45;7.63;;;;;;;8.92;74.36;95524.63;4856336;29;20025;-75
2023/11/23 07:01:30;;;;;;;10.20;7.60;;;;;;;8.92;74.07;95521.88;4823445;29;20037;-76
2023/11/23 07:03:55;;;;;;;11.73;7.13;;;;;;;8.91;74.25;95517.59;4854337;29;20037;-76
2023/11/23 07:06:24;;;;;;;11.38;7.95;;;;;;;8.93;74.13;95518.72;4836160;29;20075;-75
2023/11/23 07:08:50;;;;;;;13.13;8.30;;;;;;;8.94;74.04;95509.31;4854146;29;20160;-74
2023/11/23 07:11:19;;;;;;;11.65;7.90;;;;;;;8.98;74.12;95515.53;4851886;29;20067;-76
2023/11/23 07:13:49;;;;;;;13.75;6.95;;;;;;;9.00;73.80;95520.59;4837670;29;20033;-77
2023/11/23 07:16:14;;;;;;;10.60;6.53;;;;;;;9.02;73.69;95537.44;4867516;29;20083;-77
2023/11/23 07:18:40;;;;;;;11.77;7.68;;;;;;;9.02;73.72;95542.91;4867876;29;20053;-76
2023/11/23 07:21:06;;;;;;;11.18;7.80;;;;;;;9.12;73.38;95542.00;4856038;29;20061;-77
2023/11/23 07:23:31;;;;;;;12.07;8.68;;;;;;;9.11;73.20;95545.91;4825358;29;20527;-77
2023/11/23 07:25:57;;;;;;;12.07;9.10;;;;;;;9.07;73.65;95547.94;4867911;29;20086;-74
2023/11/23 07:28:25;;;;;;;13.45;9.25;;;;;;;9.03;73.75;95534.25;4854917;29;20029;-76
2023/11/23 07:30:50;;;;;;;15.68;10.05;;;;;;;9.05;73.81;95537.38;4855508;29;20037;-76
2023/11/23 07:33:17;;;;;;;13.27;9.48;;;;;;;9.05;74.02;95542.06;4853906;29;20036;-75
2023/11/23 07:35:46;;;;;;;13.90;9.13;;;;;;;9.04;73.74;95535.03;4865539;29;20128;-75
2023/11/23 07:38:12;;;;;;;11.10;8.23;;;;;;;9.06;73.83;95540.91;4853948;29;20218;-74
2023/11/23 07:40:38;;;;;;;11.23;7.30;;;;;;;9.14;73.39;95533.34;4869577;29;20025;-75
2023/11/23 07:43:05;;;;;;;11.48;6.95;;;;;;;9.10;73.30;95525.16;4867465;29;20037;-77
2023/11/23 07:45:30;;;;;;;11.57;7.85;;;;;;;9.07;73.37;95523.25;4851629;29;20033;-81
2023/11/23 07:47:56;;;;;;;11.40;7.43;;;;;;;9.09;73.51;95534.59;4837017;29;20124;-80
2023/11/23 07:50:21;;;;;;;14.15;9.85;;;;;;;9.06;73.15;95535.44;4866925;29;20041;-75
2023/11/23 07:52:47;;;;;;;17.77;11.93;;;;;;;9.19;73.02;95533.66;4867486;29;20032;-77
2023/11/23 07:55:15;;;;;;;17.08;10.55;;;;;;;9.10;73.18;95522.41;4846203;29;20033;-77
2023/11/23 07:57:42;;;;;;;14.73;9.27;;;;;;;9.05;73.31;95523.66;4846078;29;20084;-78
2023/11/23 08:00:08;;;;;;;12.02;8.00;;;;;;;9.05;73.28;95525.63;4839022;29;20040;-78
2023/11/23 08:02:33;;;;;;;14.00;7.20;;;;;;;9.03;73.69;95536.25;4871190;29;20040;-81
2023/11/23 08:04:59;;;;;;;12.40;8.27;;;;;;;9.06;73.47;95538.16;4855294;29;20115;-78
2023/11/23 08:07:25;;;;;;;14.68;9.35;;;;;;;9.02;73.54;95518.22;4866638;29;20402;-74
2023/11/23 08:09:51;;;;;;;13.27;8.85;;;;;;;9.03;73.65;95514.28;4871872;29;20044;-78
2023/11/23 08:12:18;;;;;;;19.88;9.65;;;;;;;9.06;73.60;95510.75;4854280;29;20033;-77
2023/11/23 08:14:43;;;;;;;12.77;8.90;;;;;;;9.02;73.59;95505.28;4852910;29;20033;-79
2023/11/23 08:17:09;;;;;;;18.45;12.27;;;;;;;9.06;73.56;95513.47;4855428;29;20041;-79
2023/11/23 08:19:35;;;;;;;19.80;12.23;;;;;;;9.11;73.83;95517.72;4870206;29;20059;-77
2023/11/23 08:22:02;;;;;;;19.58;11.63;;;;;;;9.09;73.95;95518.13;4855937;29;20093;-77
2023/11/23 08:24:28;;;;;;;15.30;11.48;;;;;;;9.09;73.84;95520.88;4855331;29;20088;-82
2023/11/23 08:26:53;;;;;;;17.33;11.95;;;;;;;9.10;74.10;95527.13;4890223;29;20029;-79
2023/11/23 08:29:19;;;;;;;17.67;12.10;;;;;;;9.11;73.92;95528.69;4858626;29;20032;-77
2023/11/23 08:31:45;;;;;;;17.63;11.82;;;;;;;9.13;73.89;95534.53;4889263;29;20059;-74
2023/11/23 08:34:11;;;;;;;17.38;11.27;;;;;;;9.12;73.95;95532.97;4859241;29;20133;-78
2023/11/23 08:36:41;;;;;;;19.35;12.77;;;;;;;9.12;74.09;95536.50;4841506;29;20040;-78
2023/11/23 08:39:07;;;;;;;19.88;13.85;;;;;;;9.16;74.25;95531.75;4841560;29;20048;-78
2023/11/23 08:41:32;;;;;;;19.10;13.00;;;;;;;9.18;74.17;95529.38;4869544;29;20457;-80
2023/11/23 08:43:58;;;;;;;18.88;13.95;;;;;;;9.20;74.31;95527.00;4857684;29;20097;-79
2023/11/23 08:46:24;;;;;;;22.58;13.77;;;;;;;9.25;74.20;95528.50;4856061;29;20441;-79
2023/11/23 08:48:49;;;;;;;24.90;14.90;;;;;;;9.24;74.10;95530.47;4871243;29;20029;-79
2023/11/23 08:51:15;;;;;;;22.27;15.00;;;;;;;9.23;74.08;95531.66;4850710;29;20405;-80
2023/11/23 08:53:41;;;;;;;24.27;16.38;;;;;;;9.22;74.19;95541.06;4857353;29;20036;-81
2023/11/23 08:56:06;;;;;;;25.55;15.98;;;;;;;9.23;74.19;95528.91;4853819;29;20524;-80
2023/11/23 08:58:32;;;;;;;28.05;17.15;;;;;;;9.28;74.20;95522.94;4868600;29;20564;-79
2023/11/23 09:00:58;;;;;;;26.92;18.67;;;;;;;9.29;74.25;95524.50;4836650;29;20041;-78
2023/11/23 09:03:24;;;;;;;27.60;18.42;;;;;;;9.22;74.26;95510.09;4858070;29;20037;-78
2023/11/23 09:05:49;;;;;;;29.42;19.38;;;;;;;9.29;74.30;95521.78;4842319;29;20029;-78
2023/11/23 09:08:15;;;;;;;27.52;19.00;;;;;;;9.31;74.40;95526.84;4855585;29;20029;-79
2023/11/23 09:10:40;;;;;;;24.90;17.52;;;;;;;9.32;74.21;95503.69;4853813;29;20030;-82
2023/11/23 09:13:05;;;;;;;26.00;16.17;;;;;;;9.34;74.16;95508.75;4856334;29;20096;-77
2023/11/23 09:15:31;;;;;;;22.40;15.38;;;;;;;9.37;73.87;95510.69;4868549;29;20037;-75
2023/11/23 09:17:57;;;;;;;19.15;13.73;;;;;;;9.38;73.64;95499.28;4873008;29;20044;-73
2023/11/23 09:20:23;;;;;;;20.15;13.90;;;;;;;9.42;73.54;95496.50;4865612;29;20033;-73
2023/11/23 09:22:49;;;;;;;19.45;14.38;;;;;;;9.42;73.54;95499.25;4844742;29;20039;-73
2023/11/23 09:25:14;;;;;;;19.05;14.75;;;;;;;9.43;73.39;95496.06;4867772;29;20113;-74
2023/11/23 09:27:40;;;;;;;20.60;14.60;;;;;;;9.47;73.59;95496.81;4838179;29;20454;-75
2023/11/23 09:30:06;;;;;;;19.63;13.52;;;;;;;9.49;73.51;95494.41;4869493;29;20029;-74
2023/11/23 09:32:38;;;;;;;16.50;11.80;;;;;;;9.56;72.97;95490.78;4845052;29;20044;-75
2023/11/23 09:35:10;;;;;;;17.45;12.60;;;;;;;9.56;72.91;95488.03;4870558;29;20041;-73
2023/11/23 09:37:39;;;;;;;16.95;11.68;;;;;;;9.57;72.82;95501.31;4868146;29;20037;-73
2023/11/23 09:40:07;;;;;;;14.30;11.13;;;;;;;9.59;72.74;95487.22;4885970;29;20037;-74
2023/11/23 09:42:35;;;;;;;14.90;10.70;;;;;;;9.58;72.60;95493.91;4869441;29;20029;-74
2023/11/23 09:45:02;;;;;;;16.45;10.88;;;;;;;9.60;72.71;95488.75;4838700;29;20112;-73
2023/11/23 09:47:31;;;;;;;13.80;10.35;;;;;;;9.58;72.69;95489.19;4838939;29;20505;-74
2023/11/23 09:49:59;;;;;;;13.18;10.45;;;;;;;9.55;72.90;95479.03;4838387;29;20040;-76
2023/11/23 09:52:27;;;;;;;13.98;10.98;;;;;;;9.57;72.95;95493.09;4851520;29;20116;-75
2023/11/23 09:54:57;;;;;;;13.90;10.27;;;;;;;9.59;73.04;95487.22;4849712;29;20417;-74
2023/11/23 09:57:26;;;;;;;14.38;10.75;;;;;;;9.61;73.06;95487.56;4853216;29;20076;-75
2023/11/23 09:59:51;;;;;;;14.90;10.60;;;;;;;9.62;73.36;95491.06;4870661;29;20041;-74
2023/11/23 10:02:22;;;;;;;14.85;11.20;;;;;;;9.63;73.35;95482.41;4842498;29;20404;-75
2023/11/23 10:04:50;;;;;;;17.23;11.20;;;;;;;9.66;73.17;95472.59;4866368;29;20045;-74
2023/11/23 10:07:16;;;;;;;14.73;11.68;;;;;;;9.71;73.48;95456.41;4868540;29;20034;-74
2023/11/23 10:09:42;;;;;;;13.52;10.57;;;;;;;9.72;73.65;95463.44;4839577;29;20109;-74
2023/11/23 10:12:08;;;;;;;15.75;11.15;;;;;;;9.74;73.77;95461.06;4868656;29;20065;-75
2023/11/23 10:14:33;;;;;;;14.40;10.73;;;;;;;9.76;73.79;95455.94;4867583;29;20057;-74
2023/11/23 10:16:59;;;;;;;14.93;11.07;;;;;;;9.78;73.95;95452.75;4854312;29;20033;-75
2023/11/23 10:19:24;;;;;;;15.15;11.02;;;;;;;9.74;73.87;95452.03;4824017;29;20094;-75
2023/11/23 10:21:54;;;;;;;15.00;10.63;;;;;;;9.70;73.64;95441.13;4819321;29;20034;-75
2023/11/23 10:24:23;;;;;;;15.43;11.15;;;;;;;9.75;73.81;95440.66;4851269;29;20211;-75
2023/11/23 10:26:50;;;;;;;14.50;11.13;;;;;;;9.72;74.19;95437.97;4867788;29;20124;-74
2023/11/23 10:29:18;;;;;;;14.35;10.65;;;;;;;9.73;74.19;95432.06;4855277;29;20116;-73
2023/11/23 10:31:43;;;;;;;14.93;10.90;;;;;;;9.77;74.00;95427.28;4840341;29;20548;-74
2023/11/23 10:34:10;;;;;;;15.48;11.07;;;;;;;9.72;73.82;95414.03;4854871;29;20029;-74
2023/11/23 10:36:39;;;;;;;14.20;10.73;;;;;;;9.79;73.93;95418.63;4868779;29;20057;-74
2023/11/23 10:39:09;;;;;;;14.68;9.93;;;;;;;9.82;73.85;95420.53;4864842;29;20025;-74
2023/11/23 10:41:36;;;;;;;15.90;10.55;;;;;;;9.87;73.70;95419.28;4840745;29;20035;-74
2023/11/23 10:44:03;;;;;;;14.13;9.98;;;;;;;9.85;73.97;95414.97;4840894;29;20123;-74
2023/11/23 10:46:28;;;;;;;13.80;10.15;;;;;;;9.85;73.75;95420.44;4854578;29;20032;-72
2023/11/23 10:48:54;;;;;;;15.35;9.20;;;;;;;9.94;73.62;95413.66;4853792;29;20065;-75
2023/11/23 10:51:21;;;;;;;12.38;8.55;;;;;;;9.97;72.84;95408.06;4855170;29;20029;-73
2023/11/23 10:53:46;;;;;;;10.93;7.60;;;;;;;9.95;73.14;95401.47;4819604;29;20041;-74
2023/11/23 10:56:23;;;;;;;9.15;6.97;;;;;;;9.89;73.21;95397.66;4857805;29;20468;-72
2023/11/23 10:58:50;;;;;;;7.75;5.50;;;;;;;9.82;73.44;95396.59;4857527;29;20504;-76
2023/11/23 11:01:21;;;;;;;12.23;8.52;;;;;;;9.82;73.83;95401.31;4856341;29;20029;-76
2023/11/23 11:03:47;;;;;;;15.52;9.30;;;;;;;9.76;74.12;95397.50;4861801;29;20073;-77
2023/11/23 11:06:13;;;;;;;14.05;9.30;;;;;;;9.80;73.91;95381.72;4868651;29;20457;-78
2023/11/23 11:08:49;;;;;;;12.90;10.18;;;;;;;9.82;73.89;95388.34;4839569;29;20033;-76
2023/11/23 11:11:25;;;;;;;13.68;8.85;;;;;;;9.75;73.99;95384.97;4854232;29;20026;-75
2023/11/23 11:14:00;;;;;;;11.95;9.07;;;;;;;9.80;74.05;95387.22;4838126;29;20519;-73
2023/11/23 11:16:33;;;;;;;12.48;9.73;;;;;;;9.82;73.98;95382.09;4866294;29;20121;-74
2023/11/23 11:19:07;;;;;;;16.25;10.85;;;;;;;9.80;73.94;95382.50;4837798;29;20025;-74
2023/11/23 11:21:48;;;;;;;12.18;9.40;;;;;;;9.84;73.91;95385.19;4866678;29;20073;-74
2023/11/23 11:24:18;;;;;;;14.10;10.52;;;;;;;9.85;74.03;95378.50;4851620;29;20551;-74
2023/11/23 11:26:46;;;;;;;12.70;9.52;;;;;;;9.95;73.59;95380.25;4851608;29;20036;-75
2023/11/23 11:29:13;;;;;;;10.85;9.48;;;;;;;9.93;73.49;95384.63;4853054;29;20030;-75
2023/11/23 11:31:40;;;;;;;14.15;9.57;;;;;;;9.92;73.39;95377.56;4853087;29;20079;-75